createdAt,value
2019-05-02T00:00:44.860Z,69.97
2019-05-02T00:03:13.137Z,70.04
2019-05-02T00:05:41.583Z,70.59
2019-05-02T00:08:10.774Z,70.63
2019-05-02T00:10:38.745Z,70.90
2019-05-02T00:13:06.802Z,70.25
2019-05-02T00:15:38.206Z,71.48
2019-05-02T00:18:05.246Z,69.78
2019-05-02T00:20:33.858Z,71.06
2019-05-02T00:23:01.821Z,70.59
2019-05-02T00:25:30.172Z,70.39
2019-05-02T00:28:02.140Z,70.89
2019-05-02T00:30:34.590Z,70.93
2019-05-02T00:33:03.479Z,71.30
2019-05-02T00:35:34.226Z,70.18
2019-05-02T00:38:02.836Z,71.06
2019-05-02T00:40:31.713Z,71.68
2019-05-02T00:42:59.761Z,70.08
2019-05-02T00:45:28.140Z,70.82
2019-05-02T00:48:02.556Z,70.87
2019-05-02T00:50:35.021Z,70.87
2019-05-02T00:53:07.186Z,68.77
2019-05-02T00:55:35.595Z,69.72
2019-05-02T00:58:04.470Z,71.09
2019-05-02T01:00:44.117Z,69.40
2019-05-02T01:03:17.852Z,68.94
2019-05-02T01:06:49.322Z,68.24
2019-05-02T01:09:16.968Z,69.44
2019-05-02T01:11:44.165Z,68.64
2019-05-02T01:14:11.021Z,68.41
2019-05-02T01:16:40.952Z,68.53
2019-05-02T01:19:12.071Z,68.78
2019-05-02T01:21:38.805Z,69.27
2019-05-02T01:24:05.172Z,68.82
2019-05-02T01:26:34.275Z,66.97
2019-05-02T01:29:11.890Z,67.35
2019-05-02T01:31:59.311Z,67.54
2019-05-02T01:34:40.709Z,67.04
2019-05-02T01:37:26.628Z,67.67
2019-05-02T01:39:53.528Z,67.79
2019-05-02T01:42:20.400Z,66.84
2019-05-02T01:44:47.191Z,68.64
2019-05-02T01:47:14.724Z,68.52
2019-05-02T01:49:41.395Z,67.82
2019-05-02T01:52:08.064Z,68.07
2019-05-02T01:54:34.871Z,68.39
2019-05-02T01:57:03.889Z,66.87
2019-05-02T01:59:33.985Z,67.04
2019-05-02T02:01:59.164Z,67.23
2019-05-02T02:04:25.929Z,67.94
2019-05-02T02:06:52.855Z,66.97
2019-05-02T02:09:19.783Z,66.90
2019-05-02T02:11:46.686Z,67.19
2019-05-02T02:14:18.310Z,67.06
2019-05-02T02:16:42.241Z,66.42
2019-05-02T02:19:13.799Z,66.61
2019-05-02T02:21:48.495Z,67.34
2019-05-02T02:24:25.091Z,65.65
2019-05-02T02:26:51.735Z,66.83
2019-05-02T02:29:18.540Z,67.00
2019-05-02T02:31:46.940Z,66.26
2019-05-02T02:34:14.224Z,66.78
2019-05-02T02:36:40.936Z,66.93
2019-05-02T02:39:14.152Z,67.62
2019-05-02T02:41:36.361Z,66.28
2019-05-02T02:44:17.910Z,66.00
2019-05-02T02:46:46.458Z,65.38
2019-05-02T02:49:21.268Z,66.51
2019-05-02T02:51:42.154Z,66.11
2019-05-02T02:54:08.896Z,65.46
2019-05-02T02:56:40.586Z,65.65
2019-05-02T02:59:04.838Z,65.64
2019-05-02T03:01:31.529Z,65.70
2019-05-02T03:04:02.073Z,65.48
2019-05-02T03:06:27.092Z,64.98
2019-05-02T03:08:53.947Z,65.80
2019-05-02T03:11:25.011Z,66.43
2019-05-02T03:13:59.760Z,66.23
2019-05-02T03:16:24.292Z,65.48
2019-05-02T03:18:51.209Z,66.67
2019-05-02T03:21:20.829Z,66.28
2019-05-02T03:23:47.817Z,66.98
2019-05-02T03:26:15.780Z,66.31
2019-05-02T03:28:43.817Z,67.75
2019-05-02T03:31:22.836Z,65.85
2019-05-02T03:33:55.047Z,67.08
2019-05-02T03:36:26.733Z,67.22
2019-05-02T03:38:37.288Z,66.25
2019-05-02T03:41:04.104Z,65.91
2019-05-02T03:43:31.027Z,65.67
2019-05-02T03:45:57.814Z,65.89
2019-05-02T03:48:27.775Z,66.24
2019-05-02T03:50:55.502Z,65.79
2019-05-02T03:53:25.012Z,65.91
2019-05-02T03:55:51.887Z,66.34
2019-05-02T03:58:18.681Z,66.26
2019-05-02T04:00:45.444Z,66.57
2019-05-02T04:03:13.300Z,66.87
2019-05-02T04:05:42.122Z,66.56
2019-05-02T04:08:19.416Z,68.92
2019-05-02T04:10:52.903Z,67.77
2019-05-02T04:13:16.271Z,67.29
2019-05-02T04:15:43.683Z,66.78
2019-05-02T04:18:15.231Z,68.28
2019-05-02T04:20:43.489Z,70.09
2019-05-02T04:23:11.004Z,68.66
2019-05-02T04:25:37.803Z,68.60
2019-05-02T04:28:05.902Z,68.26
2019-05-02T04:30:33.719Z,69.24
2019-05-02T04:33:00.642Z,67.77
2019-05-02T04:35:28.880Z,67.96
2019-05-02T04:37:59.207Z,68.30
2019-05-02T04:40:28.200Z,69.53
2019-05-02T04:43:02.033Z,68.49
2019-05-02T04:45:29.382Z,70.68
2019-05-02T04:47:58.634Z,68.17
2019-05-02T04:50:25.330Z,71.07
2019-05-02T04:52:53.786Z,69.64
2019-05-02T04:55:26.243Z,68.52
2019-05-02T04:57:50.470Z,70.35
2019-05-02T05:00:18.598Z,70.31
2019-05-02T05:02:48.464Z,71.01
2019-05-02T05:05:17.358Z,72.66
2019-05-02T05:07:46.209Z,71.98
2019-05-02T05:10:11.790Z,72.55
2019-05-02T05:12:41.845Z,73.92
2019-05-02T05:15:07.969Z,70.53
2019-05-02T05:17:34.723Z,72.37
2019-05-02T05:20:10.540Z,72.58
2019-05-02T05:22:30.099Z,71.45
2019-05-02T05:25:12.169Z,73.42
2019-05-02T05:27:37.746Z,72.05
2019-05-02T05:30:11.255Z,72.92
2019-05-02T05:32:34.727Z,70.09
2019-05-02T05:35:03.182Z,73.25
2019-05-02T05:37:30.350Z,73.91
2019-05-02T05:39:57.997Z,72.71
2019-05-02T05:42:29.978Z,72.64
2019-05-02T05:44:53.526Z,72.72
2019-05-02T05:47:21.517Z,72.00
2019-05-02T05:49:52.237Z,74.00
2019-05-02T05:52:18.083Z,73.97
2019-05-02T05:54:47.072Z,73.66
2019-05-02T05:57:17.447Z,73.34
2019-05-02T05:59:42.884Z,72.36
2019-05-02T06:02:13.139Z,70.58
2019-05-02T06:04:38.898Z,72.00
2019-05-02T06:07:07.239Z,73.62
2019-05-02T06:09:34.476Z,73.58
2019-05-02T06:12:01.198Z,71.95
2019-05-02T06:14:28.066Z,71.35
2019-05-02T06:16:54.916Z,71.96
2019-05-02T06:19:22.319Z,72.51
2019-05-02T06:21:49.256Z,73.51
2019-05-02T06:24:17.093Z,72.50
2019-05-02T06:26:44.643Z,70.55
2019-05-02T06:29:18.397Z,73.43
2019-05-02T06:31:43.027Z,72.48
2019-05-02T06:34:10.728Z,73.55
2019-05-02T06:36:40.093Z,73.48
2019-05-02T06:39:07.501Z,72.65
2019-05-02T06:41:34.271Z,71.89
2019-05-02T06:44:01.634Z,70.97
2019-05-02T06:46:29.735Z,69.63
2019-05-02T06:48:56.604Z,69.35
2019-05-02T06:51:23.356Z,69.24
2019-05-02T06:53:50.299Z,70.62
2019-05-02T06:56:20.120Z,70.43
2019-05-02T06:58:46.788Z,68.69
2019-05-02T07:01:16.234Z,71.42
2019-05-02T07:03:46.219Z,71.35
2019-05-02T07:06:11.020Z,70.53
2019-05-02T07:08:37.742Z,69.94
2019-05-02T07:11:05.701Z,68.88
2019-05-02T07:13:36.160Z,68.52
2019-05-02T07:16:29.957Z,67.67
2019-05-02T07:18:47.500Z,69.93
2019-05-02T07:21:17.320Z,71.93
2019-05-02T07:23:48.679Z,69.93
2019-05-02T07:26:15.582Z,69.95
2019-05-02T07:28:45.723Z,69.62
2019-05-02T07:31:13.876Z,69.68
2019-05-02T07:33:41.059Z,71.88
2019-05-02T07:36:07.990Z,69.46
2019-05-02T07:38:34.897Z,72.00
2019-05-02T07:41:02.497Z,69.80
2019-05-02T07:43:29.635Z,70.55
2019-05-02T07:45:56.466Z,69.52
2019-05-02T07:48:23.313Z,68.42
2019-05-02T07:50:50.330Z,68.15
2019-05-02T07:53:17.533Z,68.90
2019-05-02T07:55:44.410Z,69.08
2019-05-02T07:58:11.085Z,68.18
2019-05-02T08:00:38.505Z,70.34
2019-05-02T08:03:05.397Z,67.25
2019-05-02T08:05:32.272Z,68.36
2019-05-02T08:07:59.156Z,71.31
2019-05-02T08:10:26.204Z,70.57
2019-05-02T08:12:52.941Z,70.22
2019-05-02T08:15:19.644Z,70.05
2019-05-02T08:17:53.218Z,70.11
2019-05-02T08:20:19.169Z,68.94
2019-05-02T08:22:49.007Z,67.74
2019-05-02T08:25:13.733Z,71.60
2019-05-02T08:27:45.706Z,69.43
2019-05-02T08:30:14.527Z,69.44
2019-05-02T08:32:41.487Z,68.45
2019-05-02T08:35:08.563Z,69.21
2019-05-02T08:37:41.089Z,69.05
2019-05-02T08:40:10.631Z,70.42
2019-05-02T08:42:34.202Z,71.50
2019-05-02T08:45:03.178Z,70.53
2019-05-02T08:47:30.597Z,69.61
2019-05-02T08:49:57.551Z,69.05
2019-05-02T08:52:24.855Z,70.04
2019-05-02T08:54:51.620Z,68.49
2019-05-02T08:57:18.472Z,67.49
2019-05-02T08:59:45.274Z,68.28
2019-05-02T09:02:11.936Z,67.09
2019-05-02T09:04:38.826Z,68.51
2019-05-02T09:07:06.039Z,68.45
2019-05-02T09:09:32.686Z,67.39
2019-05-02T09:12:09.675Z,67.51
2019-05-02T09:14:28.585Z,68.07
2019-05-02T09:16:55.350Z,67.51
2019-05-02T09:19:26.306Z,66.48
2019-05-02T09:21:52.572Z,68.81
2019-05-02T09:24:23.240Z,68.86
2019-05-02T09:26:48.433Z,68.73
2019-05-02T09:29:15.311Z,65.88
2019-05-02T09:31:45.867Z,65.77
2019-05-02T09:34:11.752Z,66.74
2019-05-02T09:36:39.015Z,65.02
2019-05-02T09:39:06.393Z,69.26
2019-05-02T09:41:36.256Z,67.60
2019-05-02T09:44:03.007Z,66.83
2019-05-02T09:46:29.651Z,65.78
2019-05-02T09:48:57.121Z,66.72
2019-05-02T09:51:25.882Z,66.65
2019-05-02T09:53:57.083Z,65.78
2019-05-02T09:56:21.989Z,66.95
2019-05-02T09:58:49.517Z,66.10
2019-05-02T10:01:18.442Z,66.72
2019-05-02T10:03:45.499Z,66.92
2019-05-02T10:06:16.486Z,66.50
2019-05-02T10:08:43.506Z,66.46
2019-05-02T10:11:11.746Z,65.30
2019-05-02T10:13:38.712Z,65.90
2019-05-02T10:16:06.111Z,68.47
2019-05-02T10:18:33.237Z,66.68
2019-05-02T10:21:00.310Z,68.78
2019-05-02T10:23:27.493Z,66.89
2019-05-02T10:25:54.320Z,67.08
2019-05-02T10:28:22.854Z,66.89
2019-05-02T10:30:52.657Z,67.69
2019-05-02T10:33:18.910Z,65.73
2019-05-02T10:35:49.670Z,65.93
2019-05-02T10:38:19.407Z,66.79
2019-05-02T10:40:48.331Z,67.11
2019-05-02T10:43:14.987Z,67.86
2019-05-02T10:45:47.497Z,69.35
2019-05-02T10:48:24.827Z,69.33
2019-05-02T10:50:53.912Z,68.90
2019-05-02T10:53:21.885Z,68.14
2019-05-02T10:55:48.761Z,67.80
2019-05-02T10:58:15.724Z,67.50
2019-05-02T11:00:45.367Z,67.38
2019-05-02T11:03:16.831Z,67.16
2019-05-02T11:05:58.036Z,64.73
2019-05-02T11:08:26.347Z,65.62
2019-05-02T11:10:53.366Z,65.96
2019-05-02T11:13:28.253Z,66.30
2019-05-02T11:16:14.032Z,65.24
2019-05-02T11:18:58.415Z,65.79
2019-05-02T11:21:28.277Z,66.65
2019-05-02T11:23:55.266Z,67.29
2019-05-02T11:26:25.128Z,66.16
2019-05-02T11:28:52.115Z,65.13
2019-05-02T11:31:19.183Z,65.38
2019-05-02T11:33:46.146Z,63.88
2019-05-02T11:36:13.720Z,61.77
2019-05-02T11:38:44.596Z,63.95
2019-05-02T11:41:11.846Z,63.62
2019-05-02T11:43:42.380Z,65.28
2019-05-02T11:46:07.436Z,63.60
2019-05-02T11:48:34.319Z,63.24
2019-05-02T11:51:02.713Z,62.62
2019-05-02T11:53:29.765Z,62.46
2019-05-02T11:55:58.271Z,62.62
2019-05-02T11:58:25.193Z,62.04
2019-05-02T12:00:52.509Z,63.08
2019-05-02T12:03:28.267Z,61.56
2019-05-02T12:05:52.786Z,61.48
2019-05-02T12:08:20.007Z,61.80
2019-05-02T12:10:46.993Z,61.09
2019-05-02T12:13:15.939Z,62.24
2019-05-02T12:15:44.317Z,62.18
2019-05-02T12:18:12.146Z,61.85
2019-05-02T12:20:39.441Z,61.75
2019-05-02T12:23:08.993Z,63.04
2019-05-02T12:25:35.014Z,62.30
2019-05-02T12:28:02.436Z,63.91
2019-05-02T12:31:28.403Z,64.63
2019-05-02T12:33:55.739Z,63.66
2019-05-02T12:36:22.799Z,62.30
2019-05-02T12:38:49.710Z,61.74
2019-05-02T12:41:21.967Z,61.35
2019-05-02T12:43:45.466Z,62.21
2019-05-02T12:46:12.443Z,59.97
2019-05-02T12:48:42.138Z,59.16
2019-05-02T12:51:08.799Z,59.10
2019-05-02T12:53:35.491Z,58.64
2019-05-02T12:56:02.552Z,59.14
2019-05-02T12:58:29.996Z,57.51
2019-05-02T13:00:56.921Z,55.89
2019-05-02T13:03:34.514Z,57.29
2019-05-02T13:06:03.060Z,58.39
2019-05-02T13:08:41.364Z,57.13
2019-05-02T13:11:12.434Z,58.13
2019-05-02T13:13:41.891Z,58.59
2019-05-02T13:16:12.181Z,57.77
2019-05-02T13:18:42.294Z,59.11
2019-05-02T13:21:15.085Z,57.15
2019-05-02T13:23:47.348Z,58.46
2019-05-02T13:26:21.805Z,57.49
2019-05-02T13:28:44.186Z,57.43
2019-05-02T13:34:01.782Z,57.84
2019-05-02T13:36:42.288Z,57.60
2019-05-02T13:39:19.130Z,57.32
2019-05-02T13:41:58.202Z,55.83
2019-05-02T13:44:29.048Z,55.99
2019-05-02T13:46:56.539Z,54.86
2019-05-02T13:49:24.187Z,54.54
2019-05-02T13:51:52.161Z,55.17
2019-05-02T13:54:19.562Z,55.06
2019-05-02T13:56:48.662Z,55.65
2019-05-02T13:59:17.308Z,56.21
2019-05-02T14:01:52.370Z,54.35
2019-05-02T14:04:20.010Z,56.51
2019-05-02T14:06:47.515Z,56.17
2019-05-02T14:09:33.754Z,56.98
2019-05-02T14:12:22.735Z,59.01
2019-05-02T14:14:51.783Z,58.96
2019-05-02T14:17:23.026Z,58.37
2019-05-02T14:19:50.160Z,59.46
2019-05-02T14:22:19.585Z,59.21
2019-05-02T14:24:46.929Z,59.33
2019-05-02T14:27:17.190Z,58.97
2019-05-02T14:29:42.994Z,58.25
2019-05-02T14:32:21.309Z,58.43
2019-05-02T14:35:02.433Z,58.04
2019-05-02T14:37:29.685Z,57.74
2019-05-02T14:40:02.243Z,57.35
2019-05-02T14:42:32.270Z,57.14
2019-05-02T14:45:09.071Z,57.01
2019-05-02T14:47:28.843Z,56.53
2019-05-02T14:50:02.254Z,56.81
2019-05-02T14:52:29.377Z,56.69
2019-05-02T14:54:59.076Z,56.67
2019-05-02T14:57:27.370Z,56.44
2019-05-02T14:59:59.227Z,56.21
2019-05-02T15:02:39.309Z,55.73
2019-05-02T15:05:06.195Z,55.38
2019-05-02T15:07:32.847Z,55.75
2019-05-02T15:10:02.694Z,56.80
2019-05-02T15:12:28.162Z,57.35
2019-05-02T15:14:58.681Z,57.93
2019-05-02T15:17:23.527Z,57.78
2019-05-02T15:19:52.534Z,58.36
2019-05-02T15:22:19.114Z,58.68
2019-05-02T15:24:45.910Z,58.79
2019-05-02T15:27:17.526Z,58.73
2019-05-02T15:29:42.106Z,58.86
2019-05-02T15:32:12.650Z,59.56
2019-05-02T15:34:58.384Z,59.96
2019-05-02T15:37:25.993Z,60.58
2019-05-02T15:42:22.874Z,60.83
2019-05-02T15:44:52.213Z,60.92
2019-05-02T15:47:19.224Z,61.39
2019-05-02T15:49:45.943Z,61.17
2019-05-02T15:52:18.979Z,61.25
2019-05-02T15:54:44.681Z,61.58
2019-05-02T15:57:12.949Z,62.07
2019-05-02T15:59:44.896Z,61.95
2019-05-02T16:02:12.782Z,62.34
2019-05-02T16:04:41.898Z,61.86
2019-05-02T16:07:11.949Z,61.07
2019-05-02T16:09:39.111Z,61.70
2019-05-02T16:12:06.280Z,61.84
2019-05-02T16:14:35.957Z,62.26
2019-05-02T16:17:03.781Z,61.60
2019-05-02T16:19:32.919Z,62.49
2019-05-02T16:22:06.656Z,62.17
2019-05-02T16:24:32.129Z,63.34
2019-05-02T16:26:58.964Z,63.31
2019-05-02T16:29:28.472Z,62.29
2019-05-02T16:32:03.624Z,62.95
2019-05-02T16:34:32.451Z,63.25
2019-05-02T16:37:13.447Z,63.54
2019-05-02T16:39:42.598Z,63.32
2019-05-02T16:42:09.041Z,64.99
2019-05-02T16:44:35.721Z,65.14
2019-05-02T16:47:02.818Z,64.41
2019-05-02T16:49:29.760Z,64.02
2019-05-02T16:51:57.384Z,65.95
2019-05-02T16:54:25.373Z,65.63
2019-05-02T16:56:52.249Z,64.66
2019-05-02T16:59:21.484Z,64.75
2019-05-02T17:01:48.736Z,64.17
2019-05-02T17:04:15.388Z,64.18
2019-05-02T17:06:46.136Z,64.65
2019-05-02T17:09:33.931Z,64.53
2019-05-02T17:12:06.629Z,64.30
2019-05-02T17:14:31.735Z,64.71
2019-05-02T17:16:58.536Z,63.51
2019-05-02T17:19:26.184Z,64.75
2019-05-02T17:21:56.469Z,64.35
2019-05-02T17:24:26.060Z,63.24
2019-05-02T17:26:51.844Z,63.78
2019-05-02T17:29:21.407Z,63.54
2019-05-02T17:31:50.025Z,64.77
2019-05-02T17:34:16.044Z,63.55
2019-05-02T17:36:45.640Z,63.69
2019-05-02T17:39:12.459Z,63.47
2019-05-02T17:41:44.004Z,62.90
2019-05-02T17:44:08.006Z,63.24
2019-05-02T17:46:36.597Z,64.26
2019-05-02T17:49:03.573Z,63.29
2019-05-02T17:51:37.680Z,63.84
2019-05-02T17:54:04.223Z,63.85
2019-05-02T17:56:32.567Z,63.85
2019-05-02T17:58:59.936Z,62.86
2019-05-02T18:01:33.412Z,63.53
2019-05-02T18:03:57.311Z,63.56
2019-05-02T18:06:32.335Z,63.44
2019-05-02T18:08:55.237Z,64.48
2019-05-02T18:11:22.354Z,64.17
2019-05-02T18:13:49.635Z,63.84
2019-05-02T18:16:16.770Z,64.35
2019-05-02T18:18:46.754Z,63.94
2019-05-02T18:21:17.207Z,63.56
2019-05-02T18:23:42.808Z,63.72
2019-05-02T18:26:11.493Z,64.92
2019-05-02T18:28:46.861Z,65.08
2019-05-02T18:31:07.214Z,64.54
2019-05-02T18:33:35.909Z,63.24
2019-05-02T18:36:02.875Z,63.98
2019-05-02T18:38:29.602Z,63.60
2019-05-02T18:41:00.425Z,64.97
2019-05-02T18:43:25.345Z,64.53
2019-05-02T18:45:52.230Z,64.91
2019-05-02T18:48:21.679Z,66.12
2019-05-02T18:50:50.077Z,64.99
2019-05-02T18:53:18.704Z,65.41
2019-05-02T18:55:46.137Z,65.21
2019-05-02T18:58:13.043Z,65.98
2019-05-02T19:00:42.067Z,67.57
2019-05-02T19:03:15.084Z,67.57
2019-05-02T19:05:38.362Z,67.00
2019-05-02T19:08:05.888Z,65.94
2019-05-02T19:10:37.085Z,66.75
2019-05-02T19:13:05.941Z,66.04
2019-05-02T19:15:34.086Z,66.26
2019-05-02T19:17:59.128Z,66.92
2019-05-02T19:20:29.569Z,68.15
2019-05-02T19:22:57.047Z,68.65
2019-05-02T19:25:23.987Z,66.61
2019-05-02T19:27:57.633Z,68.52
2019-05-02T19:30:27.191Z,69.21
2019-05-02T19:32:53.071Z,70.01
2019-05-02T19:35:21.872Z,69.18
2019-05-02T19:37:48.770Z,68.16
2019-05-02T19:40:20.053Z,70.55
2019-05-02T19:42:47.839Z,69.68
2019-05-02T19:45:16.850Z,70.38
2019-05-02T19:47:43.256Z,68.40
2019-05-02T19:50:26.438Z,70.18
2019-05-02T19:53:01.158Z,68.91
2019-05-02T19:55:24.170Z,68.59
2019-05-02T19:57:52.303Z,69.84
2019-05-02T20:00:19.775Z,68.76
2019-05-02T20:02:46.526Z,70.05
2019-05-02T20:05:16.532Z,72.28
2019-05-02T20:07:42.650Z,69.76
2019-05-02T20:10:10.057Z,71.96
2019-05-02T20:12:42.412Z,71.03
2019-05-02T20:15:06.407Z,69.91
2019-05-02T20:17:33.167Z,70.04
2019-05-02T20:20:05.425Z,71.69
2019-05-02T20:22:31.673Z,72.90
2019-05-02T20:25:01.259Z,71.08
2019-05-02T20:27:28.729Z,71.44
2019-05-02T20:29:55.726Z,71.50
2019-05-02T20:32:22.688Z,70.10
2019-05-02T20:34:49.489Z,72.66
2019-05-02T20:37:16.584Z,71.62
2019-05-02T20:39:43.854Z,71.15
2019-05-02T20:42:12.081Z,72.67
2019-05-02T20:44:41.730Z,71.27
2019-05-02T20:47:12.303Z,70.36
2019-05-02T20:49:38.985Z,72.55
2019-05-02T20:52:05.745Z,70.48
2019-05-02T20:54:32.476Z,71.89
2019-05-02T20:56:59.464Z,70.97
2019-05-02T20:59:26.652Z,73.30
2019-05-02T21:01:53.402Z,70.68
2019-05-02T21:04:20.316Z,71.03
2019-05-02T21:06:52.705Z,70.78
2019-05-02T21:09:24.160Z,73.45
2019-05-02T21:11:56.374Z,72.42
2019-05-02T21:14:23.010Z,74.37
2019-05-02T21:16:49.747Z,71.83
2019-05-02T21:19:16.535Z,73.40
2019-05-02T21:21:43.792Z,71.37
2019-05-02T21:24:10.428Z,72.58
2019-05-02T21:26:37.484Z,70.60
2019-05-02T21:29:04.221Z,69.75
2019-05-02T21:31:31.927Z,68.97
2019-05-02T21:33:58.873Z,69.06
2019-05-02T21:36:25.520Z,68.87
2019-05-02T21:38:52.280Z,69.75
2019-05-02T21:41:19.334Z,69.82
2019-05-02T21:43:46.176Z,69.90
2019-05-02T21:46:12.884Z,69.91
2019-05-02T21:48:39.575Z,69.72
2019-05-02T21:51:08.200Z,69.11
2019-05-02T21:53:56.167Z,69.33
2019-05-02T21:56:32.424Z,68.68
2019-05-02T21:59:11.914Z,69.27
2019-05-02T22:01:43.713Z,69.86
2019-05-02T22:04:10.555Z,68.91
2019-05-02T22:06:38.155Z,69.10
2019-05-02T22:09:07.009Z,69.02
2019-05-02T22:11:33.774Z,69.29
2019-05-02T22:14:02.250Z,68.96
2019-05-02T22:16:29.089Z,69.42
2019-05-02T22:18:56.179Z,69.14
2019-05-02T22:21:22.964Z,69.35
2019-05-02T22:23:49.598Z,69.79
2019-05-02T22:26:16.419Z,70.02
2019-05-02T22:28:43.533Z,70.60
2019-05-02T22:31:12.137Z,69.50
2019-05-02T22:33:38.752Z,69.71
2019-05-02T22:36:05.540Z,70.81
2019-05-02T22:38:42.357Z,70.12
2019-05-02T22:41:09.303Z,69.89
2019-05-02T22:43:36.357Z,70.43
2019-05-02T22:46:05.124Z,70.44
2019-05-02T22:48:31.958Z,69.68
2019-05-02T22:50:58.791Z,69.67
2019-05-02T22:53:25.836Z,69.26
2019-05-02T22:55:52.939Z,69.57
2019-05-02T22:58:19.726Z,69.26
2019-05-02T23:00:46.351Z,69.50
2019-05-02T23:03:13.002Z,69.51
2019-05-02T23:05:42.011Z,70.58
2019-05-02T23:08:08.787Z,69.95
2019-05-02T23:10:35.425Z,70.84
2019-05-02T23:13:02.446Z,71.02
2019-05-02T23:15:29.124Z,70.33
2019-05-02T23:17:55.886Z,70.18
2019-05-02T23:20:24.436Z,69.66
2019-05-02T23:22:52.409Z,69.43
2019-05-02T23:25:39.159Z,70.98
2019-05-02T23:28:08.319Z,70.81
2019-05-02T23:30:35.269Z,70.04
2019-05-02T23:33:02.351Z,70.15
2019-05-02T23:35:29.146Z,70.55
2019-05-02T23:37:55.886Z,69.86
2019-05-02T23:40:22.806Z,69.65
2019-05-02T23:42:49.890Z,70.11
2019-05-02T23:45:16.844Z,69.37
2019-05-02T23:47:44.172Z,69.46
2019-05-02T23:50:12.117Z,70.00
2019-05-02T23:52:39.575Z,70.14
2019-05-02T23:55:06.583Z,69.53
2019-05-02T23:57:33.248Z,69.36
